NetherlandsFixed distance
50mi Weert
23 May2009
Distance
50mi
Finishers
3027 men3 women
Winning time
9:51:57h
Median pace
6.91km/h
Pace distribution
30 finishers · 5.26–8.16 km/h · mean 6.70
Every finisher ran the same 50 mi course, so these paces are directly comparable.
Histogram of finisher pace. 30 finishers ranged from 5.26 to 8.16 kilometres per hour, with a mean of 6.70 and a median of 6.91. The busiest band is 7.0 to 7.5 kilometres per hour, with 9 finishers.
Results
Ranks 1–30 of 30
| Rank | Runner | Time | Pace | Cat. | Placing |
|---|---|---|---|---|---|
| 1 | Sint Jansstappers | 9:51:57h | 8.16 | M60 | 1st M · 1st M60 |
| 2 | SV de LAT | 9:54:11h | 8.13 | M40 | 2nd M · 1st M40 |
| 3 | 10:18:50h | 7.80 | M60 | 3rd M · 2nd M60 | |
| 4 | RWV | 10:22:41h | 7.75 | M60 | 4th M · 3rd M60 |
| 5 | RWV | 10:25:27h | 7.72 | W40 | 1st F · 1st W40 |
| 6 | RWV | 10:25:27h | 7.72 | M40 | 5th M · 2nd M40 |
| 7 | RWV | 10:57:30h | 7.34 | M60 | 6th M · 4th M60 |
| 8 | RWV | 11:01:47h | 7.29 | M40 | 7th M · 3rd M40 |
| 9 | Olat | 11:08:53h | 7.22 | — | 8th M |
| 10 | Olat | 11:08:59h | 7.22 | M50 | 9th M · 1st M50 |
| 11 | SV de LAT | 11:13:05h | 7.17 | M45 | 10th M · 1st M45 |
| 12 | 11:22:22h | 7.08 | M60 | 11th M · 5th M60 | |
| 13 | Olat/Ws'78 | 11:26:23h | 7.03 | M50 | 12th M · 2nd M50 |
| 14 | Aav36 | 11:26:38h | 7.03 | — | 13th M |
| 15 | Olat | 11:27:59h | 7.02 | M50 | 14th M · 3rd M50 |
| 16 | Grenslopers | 11:38:32h | 6.91 | — | 15th M |
| 17 | W.S.V. Haaglanden | 11:45:28h | 6.84 | M50 | 16th M · 4th M50 |
| 18 | Knblo-Regio Limburg | 11:45:45h | 6.84 | M65 | 17th M · 1st M65 |
| 19 | 11:46:54h | 6.83 | M50 | 18th M · 5th M50 | |
| 20 | 12:29:15h | 6.44 | M45 | 19th M · 2nd M45 | |
| 21 | Rust Roest Maaseik | 12:56:10h | 6.22 | — | 20th M |
| 22 | Olat | 13:53:30h | 5.79 | M50 | 21st M · 6th M50 |
| 23 | Knblo | 14:04:24h | 5.72 | — | 22nd M |
| 24 | 14:21:59h | 5.60 | M55 | 23rd M · 1st M55 | |
| 25 | Olat | 14:24:52h | 5.58 | M23 | 24th M · 1st M23 |
| 26 | 14:38:54h | 5.49 | W55 | 2nd F · 1st W55 | |
| 27 | 14:56:56h | 5.38 | — | 25th M | |
| 28 | 15:17:22h | 5.26 | — | 3rd F | |
| 29 | 15:17:22h | 5.26 | — | 26th M | |
| 30 | 15:17:22h | 5.26 | — | 26th M |
- 1Sint Jansstappers1st M · 1st M60Time9:51:57hPace8.16Cat.M60
- 2SV de LAT2nd M · 1st M40Time9:54:11hPace8.13Cat.M40
- 33rd M · 2nd M60Time10:18:50hPace7.80Cat.M60
- 4RWV4th M · 3rd M60Time10:22:41hPace7.75Cat.M60
- 5RWV1st F · 1st W40Time10:25:27hPace7.72Cat.W40
- 6RWV5th M · 2nd M40Time10:25:27hPace7.72Cat.M40
- 7RWV6th M · 4th M60Time10:57:30hPace7.34Cat.M60
- 8RWV7th M · 3rd M40Time11:01:47hPace7.29Cat.M40
- 9Olat8th MTime11:08:53hPace7.22
- 10Olat9th M · 1st M50Time11:08:59hPace7.22Cat.M50
- 11SV de LAT10th M · 1st M45Time11:13:05hPace7.17Cat.M45
- 1211th M · 5th M60Time11:22:22hPace7.08Cat.M60
- 13Olat/Ws'7812th M · 2nd M50Time11:26:23hPace7.03Cat.M50
- 14Aav3613th MTime11:26:38hPace7.03
- 15Olat14th M · 3rd M50Time11:27:59hPace7.02Cat.M50
- 16Grenslopers15th MTime11:38:32hPace6.91
- 17W.S.V. Haaglanden16th M · 4th M50Time11:45:28hPace6.84Cat.M50
- 18Knblo-Regio Limburg17th M · 1st M65Time11:45:45hPace6.84Cat.M65
- 1918th M · 5th M50Time11:46:54hPace6.83Cat.M50
- 2019th M · 2nd M45Time12:29:15hPace6.44Cat.M45
- 21Rust Roest Maaseik20th MTime12:56:10hPace6.22
- 22Olat21st M · 6th M50Time13:53:30hPace5.79Cat.M50
- 23Knblo22nd MTime14:04:24hPace5.72
- 2423rd M · 1st M55Time14:21:59hPace5.60Cat.M55
- 25Olat24th M · 1st M23Time14:24:52hPace5.58Cat.M23
- 262nd F · 1st W55Time14:38:54hPace5.49Cat.W55
- 2725th MTime14:56:56hPace5.38
- 283rd FTime15:17:22hPace5.26
- 2926th MTime15:17:22hPace5.26
- 3026th MTime15:17:22hPace5.26